• °C
  • Pobieranie danych...
wx


PRINT OUT SECTION, show »

METAR EPBY 261000Z 28011KT 9999 SCT012 OVC014 01/M01 Q1006=

METAR EPGD 261000Z 30007KT 9999 SCT010 BKN028 00/M01 Q1004 R11/550195
=

METAR EPKK 261000Z 25010KT 9999 -SN FEW012 BKN020 M00/M02 Q1009
R25/51//95 =

METAR EPKT 261000Z 26012KT 9999 -SN SCT009 OVC011 M01/M02 Q1009 =

METAR EPLB 261000Z 28019KT 9999 DRSN SCT017 OVC045 01/M02 Q1004
R25/599591 =

METAR EPLL 261000Z 27011KT 9999 -SN FEW009 BKN013 00/M02 Q1007 =

METAR EPMO 261000Z 27016KT 9999 BKN017 01/M02 Q1004 =

METAR EPPO 261000Z 27011KT 9000 OVC008 01/M00 Q1008 =

METAR EPRA 261000Z NIL=

METAR EPRZ 261000Z 26018KT 9999 FEW017 BKN040 M00/M03 Q1007
R27/52//95 =

METAR EPSC 261000Z 28007KT 4100 BR OVC004 00/M01 Q1009 =

METAR EPSY 261000Z 29008KT 250V330 9999 OVC012 01/M01 Q1002
R01/590293=

METAR EPWA 261000Z 28017KT 9999 SCT018 BKN046 01/M02 Q1005 R33/2///95
NOSIG=

METAR EPWR 261000Z 27012KT 9999 FEW037 00/M02 Q1010 RESHSN R11/19//95
=

METAR EPZG 261000Z 25010KT 4800 BR BKN009 01/M01 Q1010 =
 METAR EPZG
Lokalizacja:EPZG Zielona Góra Babimost
Czas:10:00 UTC
Średni kierunek wiatru:250 °
Średnia prędkość wiatru:10 węzłów
Widzialność:4800 metrów
Zjawisko:zamglenie
Pierwsza warstwa chmur:5/8 do 7/8, wysokość podstawy 900 FT
Temperatura powietrza:1 °C
Temperatura punktu rosy:-1 °C
Ciśnienie QNH:1010 hPa



IMGW-PIB Sites